Martinsburg, PA

6:21 PM EDT on September 02, 2015 (GMT -0400)
Altoona-Blair County | | Change Station
CLOSE
Current Station
Airport
Location: Altoona,
Elevation: 1503 ft
Nearby Weather Stations

Elev 1503 ft 40.30 °N, 78.32 °W | Updated 7 minutes ago

Haze
Haze
77 °F
Feels Like 77 °F
N
4
Wind Variable Wind from North

Today
High -- | Low -- °F
--% Chance of Precip.
Yesterday
High -- | Low -- °F
Precip. -- in
6:41 AM 7:43 PM
Waning Gibbous, 76% visible
Pressure 30.03 in
Visibility 6.0 miles
Clouds Few 6000 ft
Dew Point 69 °F
Humidity 76%
Rainfall 0.34 in
Snow Depth Not available.
UV 1 out of 12
Pollen 10.00 out of 12
Air Quality Not available.
Flu Activity Not available.
SPECI KAOO 022214Z AUTO 36003KT 6SM HZ FEW060 25/21 A3003 RMK AO2 LTG DSNT NE AND E T02500206
Pressure 30.03 in
Visibility 6.0 miles
Clouds Few 6000 ft
Dew Point 69 °F
Humidity 76%
Rainfall 0.34 in
Snow Depth Not available.
UV 1 out of 12
Pollen 10.00 out of 12
Air Quality Not available.
Flu Activity Not available.
SPECI KAOO 022214Z AUTO 36003KT 6SM HZ FEW060 25/21 A3003 RMK AO2 LTG DSNT NE AND E T02500206

10-Day Weather Forecast

×

Almanac

Astronomy

Sep. 02, 2015 Rise Set
Actual Time
Civil Twilight
Nautical Twilight
Astronomical Twilight
Moon
Length of Visible Light
Length of Day
Tomorrow will be .
, % of the Moon is Illuminated

Today's Extremes

State Highs State Lows

Community

WunderPhotos

Upload Photos

1,851,828 photos uploaded!

WunderBlogs® & News

Nearby

Air Quality

  Air Quality AQ Index Pollutant
Not available.

Snow Depth

Station Depth Elevation

Earthquake Activity

City Distance Mag. Time & Date
Minimum magnitude displayed is 2.5.

Coastal Water Temperatures

Place Temperature

Stations

Nearby Weather Stations

Station Location Temp. Windchill Dew Point Humidity Wind Precip. Elev Updated Type